Aérodrome :
LOGIN :

S'inscrire | Disclaimer

   EN    FR    IT 

 










Légende :    VFR   VFR Marginal   IFR   IFR Intensif   IFR Très Intensif
Visi : 
Plafond : 
>= 8 km
>= 3000ft
5 à 8 km
1000 à 3000 ft
1500m à 5 km
500 à 1000 ft
800 à 1500m
200 à 500 ft
< 800m
< 200 ft
Symboles :   Orages  Brouillard  Fortes neiges  Fortes précipitations  Vent > 20 kt
SIGMETs :   Divers  Orages  Givrage  Turbulence  Onde Orograph.  Cendres Volcan.







- Altitude de l'aérodrome : 36 ft
- Code IATA : GJL


DAAV - Jijel Ferhat Abbas

DERNIER METAR :
  • 200800Z 16004KT 9999 SCT020 FEW023TCU BKN033 17/14 Q1016

METARs EXPIRÉS :
  • 200700Z 18004KT 9999 FEW020 FEW023TCU BKN033 16/14 Q1015
  • 200600Z 16004KT 9999 FEW020 BKN033 15/13 Q1014

TAF TAF DAAV
Valide du 20 à 00h jusqu'au 21 à 00h UTC


192300Z 2000/2024 20014KT 9999 SCT016TCU
TEMPO 2000/2009 5000 -RA
PROB40
TEMPO 2000/2005 26015G25KT 3000 -TSRA FEW016CB
Pas de NOTAMs connus pour ce terrain.
1 SIGMET publié pour la FIR Alger (DAAA) :
 
Turbulence forte
DAAA SIGMET 3 VALID 200800/201200 DAAA ALGIERS FIR SEV TURB FCST WI N3801 E00600 - N3514 E00711 - N3253 E00647 - N3233 E00427 - N3344 E00347 - N3704 E00510 - N3801 E00600 TOP FL250/360 NC=



MET'MAP, la Météo Aéronautique d'un coup d'oeil ! - Copyright ORBIFLY Décembre 2007 - Disclaimer

ORBIFLY MET'MAP TEAM :

Programmation & Développement : Alexandra Zaïnal
Conception & Développement : Baudouin d'Aumeries
Co-Programmation & Développement : Marc-Olivier Méhu
Soutien technique & logistique : Manuel Goepfert

Contact : metmap@orbifly.com




SOURCES & CREDITS :

   NOAA